< < Back
Terminal Aerodrome Forecast


Current Version              Previous Versions:   1  2  3  4  5  6  7  8  9  

Terminal Aerodrome Forecast

808
FTUS44 KMOB 220526
TAFMOB
TAF
KMOB 220526Z 2206/2306 03009KT P6SM SCT120
     FM221800 03006KT P6SM SCT250=

Latest METAR

944
SAUS80 KWBC 222200
MTRMOB
METAR KMOB 222156Z 00000KT 10SM FEW250 28/16 A3016 RMK AO2 SLP209
T02830156


USA.gov is the U.S. government's official web portal to all federal, state and local government web resources and services.